createdAt,value
2017-03-05T00:01:06.477Z,0
2017-03-05T00:02:16.463Z,0
2017-03-05T00:03:27.221Z,0
2017-03-05T00:04:37.982Z,0
2017-03-05T00:05:49.071Z,0
2017-03-05T00:06:59.829Z,0
2017-03-05T00:08:10.165Z,0
2017-03-05T00:09:20.515Z,0
2017-03-05T00:10:31.249Z,0
2017-03-05T00:11:41.839Z,0
2017-03-05T00:12:52.594Z,0
2017-03-05T00:14:03.330Z,0
2017-03-05T00:15:13.677Z,0
2017-03-05T00:16:24.019Z,0
2017-03-05T00:17:34.238Z,0
2017-03-05T00:18:43.809Z,0
2017-03-05T00:19:53.829Z,0
2017-03-05T00:21:04.594Z,0
2017-03-05T00:22:14.958Z,0
2017-03-05T00:23:25.221Z,0
2017-03-05T00:24:36.037Z,0
2017-03-05T00:25:45.595Z,0
2017-03-05T00:26:56.325Z,0
2017-03-05T00:28:07.115Z,0
2017-03-05T00:29:18.171Z,0
2017-03-05T00:30:28.554Z,0
2017-03-05T00:31:39.346Z,0
2017-03-05T00:32:50.104Z,0
2017-03-05T00:34:00.863Z,0
2017-03-05T00:35:11.138Z,0
2017-03-05T00:36:21.500Z,0
2017-03-05T00:37:31.456Z,0
2017-03-05T00:38:41.804Z,0
2017-03-05T00:39:51.749Z,0
2017-03-05T00:41:02.366Z,0
2017-03-05T00:42:12.722Z,0
2017-03-05T00:43:23.453Z,0
2017-03-05T00:44:34.431Z,0
2017-03-05T00:45:44.764Z,0
2017-03-05T00:46:55.002Z,0
2017-03-05T00:48:05.372Z,0
2017-03-05T00:49:16.117Z,0
2017-03-05T00:50:26.860Z,0
2017-03-05T00:51:36.812Z,0
2017-03-05T00:52:47.823Z,0
2017-03-05T00:53:58.591Z,0
2017-03-05T00:55:09.349Z,0
2017-03-05T00:56:19.693Z,0
2017-03-05T00:57:30.431Z,0
2017-03-05T00:58:40.636Z,0
2017-03-05T00:59:51.375Z,0
2017-03-05T01:01:01.717Z,0
2017-03-05T01:02:12.473Z,0
2017-03-05T01:03:23.228Z,0
2017-03-05T01:04:34.239Z,0
2017-03-05T01:05:44.220Z,0
2017-03-05T01:06:54.965Z,0
2017-03-05T01:08:05.335Z,0
2017-03-05T01:09:15.676Z,0
2017-03-05T01:10:26.677Z,0
2017-03-05T01:11:36.660Z,0
2017-03-05T01:12:47.008Z,0
2017-03-05T01:13:56.989Z,0
2017-03-05T01:15:07.730Z,0
2017-03-05T01:16:17.548Z,0
2017-03-05T01:17:27.890Z,0
2017-03-05T01:18:38.252Z,0
2017-03-05T01:19:48.614Z,0
2017-03-05T01:20:59.337Z,0
2017-03-05T01:22:10.395Z,0
2017-03-05T01:23:20.757Z,0
2017-03-05T01:24:31.500Z,0
2017-03-05T01:25:41.059Z,0
2017-03-05T01:26:49.820Z,0
2017-03-05T01:28:00.924Z,0
2017-03-05T01:29:10.874Z,0
2017-03-05T01:30:20.431Z,0
2017-03-05T01:31:31.186Z,0
2017-03-05T01:32:41.535Z,0
2017-03-05T01:33:51.724Z,0
2017-03-05T01:35:02.093Z,0
2017-03-05T01:36:12.051Z,0
2017-03-05T01:37:22.052Z,0
2017-03-05T01:38:32.431Z,0
2017-03-05T01:39:43.068Z,0
2017-03-05T01:40:53.439Z,0
2017-03-05T01:42:03.401Z,0
2017-03-05T01:43:12.963Z,0
2017-03-05T01:44:23.311Z,0
2017-03-05T01:45:34.355Z,0
2017-03-05T01:46:45.161Z,0
2017-03-05T01:47:55.126Z,0
2017-03-05T01:49:05.862Z,0
2017-03-05T01:50:16.217Z,0
2017-03-05T01:51:27.277Z,0
2017-03-05T01:52:38.035Z,0
2017-03-05T01:53:48.624Z,0
2017-03-05T01:54:58.992Z,0
2017-03-05T01:56:08.569Z,0
2017-03-05T01:57:18.767Z,0
2017-03-05T01:58:28.342Z,0
2017-03-05T01:59:38.691Z,0
2017-03-05T02:00:49.460Z,0
2017-03-05T02:01:59.833Z,0
2017-03-05T02:03:10.819Z,0
2017-03-05T02:04:21.162Z,0
2017-03-05T02:05:31.505Z,0
2017-03-05T02:06:41.469Z,0
2017-03-05T02:07:51.844Z,0
2017-03-05T02:09:02.136Z,0
2017-03-05T02:10:13.120Z,0
2017-03-05T02:11:23.872Z,0
2017-03-05T02:12:34.209Z,0
2017-03-05T02:13:44.944Z,0
2017-03-05T02:14:55.191Z,0
2017-03-05T02:16:04.759Z,0
2017-03-05T02:17:15.492Z,0
2017-03-05T02:18:25.831Z,0
2017-03-05T02:19:36.576Z,0
2017-03-05T02:20:47.162Z,0
2017-03-05T02:21:56.715Z,0
2017-03-05T02:23:07.495Z,0
2017-03-05T02:24:17.464Z,0
2017-03-05T02:25:27.838Z,0
2017-03-05T02:26:38.890Z,0
2017-03-05T02:27:49.254Z,0
2017-03-05T02:28:59.997Z,0
2017-03-05T02:30:09.965Z,0
2017-03-05T02:31:20.715Z,0
2017-03-05T02:32:31.771Z,0
2017-03-05T02:33:42.144Z,0
2017-03-05T02:34:52.882Z,0
2017-03-05T02:36:02.595Z,0
2017-03-05T02:37:13.348Z,0
2017-03-05T02:38:24.372Z,0
2017-03-05T02:39:34.712Z,0
2017-03-05T02:40:45.445Z,0
2017-03-05T02:41:56.234Z,0
2017-03-05T02:43:06.580Z,0
2017-03-05T02:44:17.589Z,0
2017-03-05T02:45:27.547Z,0
2017-03-05T02:46:37.905Z,0
2017-03-05T02:47:48.682Z,0
2017-03-05T02:48:59.031Z,0
2017-03-05T02:50:09.677Z,0
2017-03-05T02:51:20.041Z,0
2017-03-05T02:52:29.992Z,0
2017-03-05T02:53:40.321Z,0
2017-03-05T02:54:51.242Z,0
2017-03-05T02:56:01.845Z,0
2017-03-05T02:57:12.192Z,0
2017-03-05T02:58:22.938Z,0
2017-03-05T02:59:32.910Z,0
2017-03-05T03:00:43.265Z,0
2017-03-05T03:01:53.521Z,0
2017-03-05T03:03:03.069Z,0
2017-03-05T03:04:13.431Z,0
2017-03-05T03:05:23.485Z,0
2017-03-05T03:06:34.248Z,0
2017-03-05T03:07:44.850Z,0
2017-03-05T03:08:55.213Z,0
2017-03-05T03:10:05.943Z,0
2017-03-05T03:11:16.677Z,0
2017-03-05T03:12:27.041Z,0
2017-03-05T03:13:37.623Z,0
2017-03-05T03:14:47.977Z,0
2017-03-05T03:15:58.321Z,0
2017-03-05T03:17:08.673Z,0
2017-03-05T03:18:18.625Z,0
2017-03-05T03:19:28.805Z,0
2017-03-05T03:20:39.188Z,0
2017-03-05T03:21:49.131Z,0
2017-03-05T03:22:59.914Z,0
2017-03-05T03:24:10.263Z,0
2017-03-05T03:25:20.513Z,0
2017-03-05T03:26:30.456Z,0
2017-03-05T03:27:41.219Z,0
2017-03-05T03:28:51.964Z,0
2017-03-05T03:30:02.308Z,0
2017-03-05T03:31:12.906Z,0
2017-03-05T03:32:23.756Z,0
2017-03-05T03:33:34.490Z,0
2017-03-05T03:34:45.248Z,0
2017-03-05T03:35:54.807Z,0
2017-03-05T03:37:04.241Z,0
2017-03-05T03:38:14.570Z,0
2017-03-05T03:39:25.316Z,0
2017-03-05T03:40:35.677Z,0
2017-03-05T03:41:45.621Z,0
2017-03-05T03:42:55.859Z,0
2017-03-05T03:44:05.795Z,0
2017-03-05T03:45:15.354Z,0
2017-03-05T03:46:25.735Z,0
2017-03-05T03:47:36.474Z,0
2017-03-05T03:48:46.743Z,0
2017-03-05T03:49:57.079Z,0
2017-03-05T03:51:07.808Z,0
2017-03-05T03:52:18.148Z,0
2017-03-05T03:53:28.928Z,0
2017-03-05T03:54:39.969Z,0
2017-03-05T03:55:50.329Z,0
2017-03-05T03:57:01.073Z,0
2017-03-05T03:58:11.405Z,0
2017-03-05T03:59:21.770Z,0
2017-03-05T04:00:32.433Z,0
2017-03-05T04:01:42.772Z,0
2017-03-05T04:02:53.515Z,0
2017-03-05T04:04:03.850Z,0
2017-03-05T04:05:13.005Z,0
2017-03-05T04:06:23.661Z,0
2017-03-05T04:07:34.406Z,0
2017-03-05T04:08:44.349Z,0
2017-03-05T04:09:54.298Z,0
2017-03-05T04:11:05.056Z,0
2017-03-05T04:12:15.723Z,0
2017-03-05T04:13:26.461Z,0
2017-03-05T04:14:37.197Z,0
2017-03-05T04:15:47.556Z,0
2017-03-05T04:16:57.898Z,0
2017-03-05T04:18:08.883Z,0
2017-03-05T04:19:19.222Z,0
2017-03-05T04:20:29.962Z,0
2017-03-05T04:21:40.688Z,0
2017-03-05T04:22:50.643Z,0
2017-03-05T04:24:01.623Z,0
2017-03-05T04:25:11.972Z,0
2017-03-05T04:26:22.314Z,0
2017-03-05T04:27:32.253Z,0
2017-03-05T04:28:42.202Z,0
2017-03-05T04:29:52.435Z,0
2017-03-05T04:31:02.784Z,0
2017-03-05T04:32:13.131Z,0
2017-03-05T04:33:23.879Z,0
2017-03-05T04:34:34.615Z,0
2017-03-05T04:35:44.860Z,0
2017-03-05T04:36:55.200Z,0
2017-03-05T04:38:05.176Z,0
2017-03-05T04:39:15.921Z,0
2017-03-05T04:40:25.910Z,0
2017-03-05T04:41:36.151Z,0
2017-03-05T04:42:46.099Z,0
2017-03-05T04:43:56.052Z,0
2017-03-05T04:45:06.044Z,0
2017-03-05T04:46:15.984Z,0
2017-03-05T04:47:25.831Z,0
2017-03-05T04:48:36.588Z,0
2017-03-05T04:49:46.932Z,0
2017-03-05T04:50:56.883Z,0
2017-03-05T04:52:06.841Z,0
2017-03-05T04:53:17.482Z,0
2017-03-05T04:54:28.239Z,0
2017-03-05T04:55:38.592Z,0
2017-03-05T04:56:49.363Z,0
2017-03-05T04:57:59.705Z,0
2017-03-05T04:59:10.727Z,0
2017-03-05T05:00:20.295Z,0
2017-03-05T05:01:30.243Z,0
2017-03-05T05:02:40.998Z,0
2017-03-05T05:03:50.951Z,0
2017-03-05T05:05:01.601Z,0
2017-03-05T05:06:11.941Z,0
2017-03-05T05:07:22.028Z,0
2017-03-05T05:08:32.774Z,0
2017-03-05T05:09:43.526Z,0
2017-03-05T05:10:54.563Z,0
2017-03-05T05:12:04.935Z,0
2017-03-05T05:13:15.282Z,0
2017-03-05T05:14:25.238Z,0
2017-03-05T05:15:35.990Z,0
2017-03-05T05:16:46.976Z,0
2017-03-05T05:17:57.726Z,0
2017-03-05T05:19:08.458Z,0
2017-03-05T05:20:18.841Z,0
2017-03-05T05:21:29.594Z,0
2017-03-05T05:22:40.265Z,0
2017-03-05T05:23:50.198Z,0
2017-03-05T05:25:00.147Z,0
2017-03-05T05:26:09.718Z,0
2017-03-05T05:27:20.070Z,0
2017-03-05T05:28:30.663Z,0
2017-03-05T05:29:41.020Z,0
2017-03-05T05:30:51.379Z,0
2017-03-05T05:32:01.737Z,0
2017-03-05T05:33:11.686Z,0
2017-03-05T05:34:22.341Z,0
2017-03-05T05:35:32.729Z,0
2017-03-05T05:36:43.097Z,0
2017-03-05T05:37:53.443Z,0
2017-03-05T05:39:03.402Z,0
2017-03-05T05:40:14.061Z,0
2017-03-05T05:41:24.397Z,0
2017-03-05T05:42:35.135Z,0
2017-03-05T05:43:45.875Z,0
2017-03-05T05:44:55.836Z,0
2017-03-05T05:46:06.842Z,0
2017-03-05T05:47:17.580Z,0
2017-03-05T05:48:27.929Z,0
2017-03-05T05:49:37.907Z,0
2017-03-05T05:50:48.255Z,0
2017-03-05T05:51:59.264Z,4
2017-03-05T05:53:09.232Z,4
2017-03-05T05:54:19.988Z,4
2017-03-05T05:55:30.373Z,4
2017-03-05T05:56:41.104Z,4
2017-03-05T05:57:51.724Z,4
2017-03-05T05:59:02.477Z,4
2017-03-05T06:00:13.222Z,0
2017-03-05T06:01:23.571Z,0
2017-03-05T06:02:33.532Z,0
2017-03-05T06:03:44.120Z,4
2017-03-05T06:04:54.489Z,4
2017-03-05T06:06:05.219Z,4
2017-03-05T06:07:15.581Z,4
2017-03-05T06:08:25.962Z,4
2017-03-05T06:09:36.611Z,0
2017-03-05T06:10:46.569Z,0
2017-03-05T06:11:57.310Z,4
2017-03-05T06:13:07.660Z,4
2017-03-05T06:14:17.637Z,4
2017-03-05T06:15:28.246Z,4
2017-03-05T06:16:37.798Z,4
2017-03-05T06:17:48.138Z,4
2017-03-05T06:18:58.892Z,4
2017-03-05T06:20:08.860Z,4
2017-03-05T06:21:19.112Z,8
2017-03-05T06:22:29.075Z,4
2017-03-05T06:23:38.637Z,4
2017-03-05T06:24:48.980Z,4
2017-03-05T06:25:59.308Z,8
2017-03-05T06:27:09.917Z,4
2017-03-05T06:28:20.748Z,8
2017-03-05T06:29:31.084Z,8
2017-03-05T06:30:41.428Z,4
2017-03-05T06:31:51.398Z,8
2017-03-05T06:33:01.658Z,8
2017-03-05T06:34:11.990Z,8
2017-03-05T06:35:22.743Z,8
2017-03-05T06:36:32.697Z,8
2017-03-05T06:37:42.649Z,8
2017-03-05T06:38:52.887Z,12
2017-03-05T06:40:03.262Z,8
2017-03-05T06:41:13.220Z,8
2017-03-05T06:42:23.981Z,4
2017-03-05T06:43:34.319Z,4
2017-03-05T06:44:44.969Z,4
2017-03-05T06:45:55.315Z,8
2017-03-05T06:47:05.273Z,4
2017-03-05T06:48:15.225Z,4
2017-03-05T06:49:25.575Z,4
2017-03-05T06:50:36.227Z,8
2017-03-05T06:51:46.184Z,8
2017-03-05T06:52:56.154Z,4
2017-03-05T06:54:06.499Z,4
2017-03-05T06:55:17.262Z,4
2017-03-05T06:56:28.301Z,4
2017-03-05T06:57:38.263Z,8
2017-03-05T06:58:48.617Z,8
2017-03-05T06:59:58.573Z,8
2017-03-05T07:01:09.331Z,8
2017-03-05T07:02:19.587Z,12
2017-03-05T07:03:30.349Z,12
2017-03-05T07:04:40.681Z,12
2017-03-05T07:05:50.688Z,8
2017-03-05T07:07:01.426Z,8
2017-03-05T07:08:12.090Z,8
2017-03-05T07:09:22.827Z,8
2017-03-05T07:10:33.184Z,8
2017-03-05T07:11:43.566Z,12
2017-03-05T07:12:53.513Z,8
2017-03-05T07:14:04.577Z,12
2017-03-05T07:15:14.557Z,12
2017-03-05T07:16:24.546Z,12
2017-03-05T07:17:34.908Z,12
2017-03-05T07:18:45.268Z,12
2017-03-05T07:19:56.298Z,12
2017-03-05T07:21:07.063Z,12
2017-03-05T07:22:17.842Z,12
2017-03-05T07:23:27.422Z,12
2017-03-05T07:24:38.186Z,12
2017-03-05T07:25:48.395Z,8
2017-03-05T07:26:59.155Z,8
2017-03-05T07:28:09.127Z,12
2017-03-05T07:29:19.886Z,8
2017-03-05T07:30:30.231Z,8
2017-03-05T07:31:41.270Z,8
2017-03-05T07:32:51.629Z,8
2017-03-05T07:34:02.388Z,12
2017-03-05T07:35:13.159Z,12
2017-03-05T07:36:23.911Z,8
2017-03-05T07:37:34.113Z,8
2017-03-05T07:38:44.858Z,8
2017-03-05T07:39:55.207Z,8
2017-03-05T07:41:05.977Z,8
2017-03-05T07:42:16.713Z,8
2017-03-05T07:43:27.751Z,8
2017-03-05T07:44:38.116Z,8
2017-03-05T07:45:48.460Z,8
2017-03-05T07:46:58.814Z,8
2017-03-05T07:48:08.783Z,8
2017-03-05T07:49:19.401Z,8
2017-03-05T07:50:29.754Z,4
2017-03-05T07:51:40.506Z,8
2017-03-05T07:52:50.486Z,8
2017-03-05T07:54:00.039Z,12
2017-03-05T07:55:10.695Z,8
2017-03-05T07:56:21.060Z,8
2017-03-05T07:57:31.018Z,8
2017-03-05T07:58:41.767Z,8
2017-03-05T07:59:52.112Z,8
2017-03-05T08:01:02.382Z,12
2017-03-05T08:02:12.733Z,8
2017-03-05T08:03:23.506Z,12
2017-03-05T08:04:34.259Z,12
2017-03-05T08:05:44.227Z,12
2017-03-05T08:06:55.236Z,12
2017-03-05T08:08:06.007Z,16
2017-03-05T08:09:16.417Z,12
2017-03-05T08:10:26.361Z,16
2017-03-05T08:11:36.731Z,16
2017-03-05T08:12:47.008Z,16
2017-03-05T08:13:57.357Z,20
2017-03-05T08:15:07.309Z,20
2017-03-05T08:16:17.639Z,24
2017-03-05T08:17:28.392Z,28
2017-03-05T08:18:39.034Z,28
2017-03-05T08:19:49.002Z,28
2017-03-05T08:20:59.763Z,24
2017-03-05T08:22:10.138Z,24
2017-03-05T08:23:20.503Z,20
2017-03-05T08:24:31.504Z,20
2017-03-05T08:25:42.256Z,20
2017-03-05T08:26:52.615Z,16
2017-03-05T08:28:02.976Z,20
2017-03-05T08:29:12.516Z,16
2017-03-05T08:30:23.141Z,20
2017-03-05T08:31:33.903Z,20
2017-03-05T08:32:43.840Z,20
2017-03-05T08:33:54.204Z,24
2017-03-05T08:35:04.621Z,24
2017-03-05T08:36:14.542Z,24
2017-03-05T08:37:24.515Z,24
2017-03-05T08:38:35.280Z,24
2017-03-05T08:39:45.684Z,28
2017-03-05T08:40:56.078Z,32
2017-03-05T08:42:06.700Z,32
2017-03-05T08:43:17.469Z,36
2017-03-05T08:44:27.412Z,40
2017-03-05T08:45:37.767Z,40
2017-03-05T08:46:47.735Z,40
2017-03-05T08:47:57.924Z,40
2017-03-05T08:49:08.274Z,40
2017-03-05T08:50:18.266Z,40
2017-03-05T08:51:29.015Z,40
2017-03-05T08:52:39.399Z,40
2017-03-05T08:53:50.009Z,40
2017-03-05T08:54:59.949Z,36
2017-03-05T08:56:10.348Z,32
2017-03-05T08:57:21.109Z,32
2017-03-05T08:58:31.069Z,32
2017-03-05T08:59:41.680Z,28
2017-03-05T09:00:52.428Z,32
2017-03-05T09:02:03.173Z,28
2017-03-05T09:03:13.511Z,28
2017-03-05T09:04:23.892Z,28
2017-03-05T09:05:34.957Z,24
2017-03-05T09:06:44.938Z,28
2017-03-05T09:07:55.709Z,28
2017-03-05T09:09:05.674Z,24
2017-03-05T09:10:15.671Z,24
2017-03-05T09:11:25.908Z,24
2017-03-05T09:12:35.869Z,24
2017-03-05T09:13:45.827Z,24
2017-03-05T09:14:56.176Z,24
2017-03-05T09:16:06.142Z,24
2017-03-05T09:17:17.158Z,24
2017-03-05T09:18:26.759Z,28
2017-03-05T09:19:37.129Z,28
2017-03-05T09:20:47.071Z,28
2017-03-05T09:21:57.820Z,32
2017-03-05T09:23:08.868Z,32
2017-03-05T09:24:19.247Z,32
2017-03-05T09:25:29.610Z,32
2017-03-05T09:26:39.962Z,32
2017-03-05T09:27:50.313Z,32
2017-03-05T09:29:01.373Z,36
2017-03-05T09:30:11.312Z,40
2017-03-05T09:31:21.290Z,40
2017-03-05T09:32:32.044Z,36
2017-03-05T09:33:42.790Z,40
2017-03-05T09:34:53.443Z,40
2017-03-05T09:36:03.408Z,40
2017-03-05T09:37:13.386Z,40
2017-03-05T09:38:23.776Z,44
2017-03-05T09:39:34.556Z,44
2017-03-05T09:40:44.400Z,40
2017-03-05T09:41:53.958Z,40
2017-03-05T09:43:04.304Z,40
2017-03-05T09:44:15.062Z,48
2017-03-05T09:45:25.824Z,48
2017-03-05T09:46:35.711Z,44
2017-03-05T09:47:46.073Z,44
2017-03-05T09:48:56.028Z,48
2017-03-05T09:50:06.782Z,48
2017-03-05T09:51:17.142Z,44
2017-03-05T09:52:26.569Z,40
2017-03-05T09:53:36.531Z,44
2017-03-05T09:54:46.882Z,44
2017-03-05T09:55:56.890Z,48
2017-03-05T09:57:07.636Z,48
2017-03-05T09:58:18.682Z,44
2017-03-05T09:59:29.036Z,44
2017-03-05T10:00:39.782Z,52
2017-03-05T10:01:50.185Z,48
2017-03-05T10:03:00.147Z,52
2017-03-05T10:04:10.749Z,52
2017-03-05T10:05:20.737Z,56
2017-03-05T10:06:31.076Z,56
2017-03-05T10:07:40.659Z,48
2017-03-05T10:08:50.616Z,48
2017-03-05T10:10:00.877Z,52
2017-03-05T10:11:11.647Z,52
2017-03-05T10:12:21.626Z,52
2017-03-05T10:13:31.973Z,48
2017-03-05T10:14:42.291Z,44
2017-03-05T10:15:53.375Z,44
2017-03-05T10:17:03.356Z,44
2017-03-05T10:18:13.712Z,44
2017-03-05T10:19:24.061Z,40
2017-03-05T10:20:34.800Z,40
2017-03-05T10:21:45.072Z,40
2017-03-05T10:22:55.401Z,36
2017-03-05T10:24:06.159Z,36
2017-03-05T10:25:16.896Z,40
2017-03-05T10:26:27.686Z,40
2017-03-05T10:27:38.669Z,44
2017-03-05T10:28:49.050Z,48
2017-03-05T10:29:59.792Z,56
2017-03-05T10:31:09.728Z,60
2017-03-05T10:32:19.663Z,60
2017-03-05T10:33:29.501Z,60
2017-03-05T10:34:39.850Z,64
2017-03-05T10:35:50.253Z,64
2017-03-05T10:37:00.999Z,60
2017-03-05T10:38:11.731Z,56
2017-03-05T10:39:21.968Z,52
2017-03-05T10:40:32.297Z,48
2017-03-05T10:41:42.686Z,44
2017-03-05T10:42:53.034Z,44
2017-03-05T10:44:02.979Z,36
2017-03-05T10:45:13.993Z,36
2017-03-05T10:46:23.970Z,36
2017-03-05T10:47:33.919Z,36
2017-03-05T10:48:44.269Z,40
2017-03-05T10:49:55.007Z,40
2017-03-05T10:51:05.218Z,36
2017-03-05T10:52:15.971Z,40
2017-03-05T10:53:26.298Z,40
2017-03-05T10:54:36.261Z,36
2017-03-05T10:55:46.576Z,32
2017-03-05T10:56:57.605Z,32
2017-03-05T10:58:08.387Z,32
2017-03-05T10:59:18.734Z,32
2017-03-05T11:00:29.091Z,36
2017-03-05T11:01:39.834Z,36
2017-03-05T11:02:49.641Z,40
2017-03-05T11:03:59.609Z,40
2017-03-05T11:05:09.980Z,40
2017-03-05T11:06:19.931Z,40
2017-03-05T11:07:30.658Z,44
2017-03-05T11:08:41.667Z,44
2017-03-05T11:09:52.788Z,48
2017-03-05T11:11:03.100Z,48
2017-03-05T11:12:12.653Z,44
2017-03-05T11:13:23.007Z,48
2017-03-05T11:14:33.660Z,44
2017-03-05T11:15:43.613Z,44
2017-03-05T11:16:53.541Z,40
2017-03-05T11:18:03.497Z,40
2017-03-05T11:19:14.238Z,36
2017-03-05T11:20:24.438Z,36
2017-03-05T11:21:34.383Z,36
2017-03-05T11:22:45.147Z,32
2017-03-05T11:23:55.492Z,32
2017-03-05T11:25:04.636Z,32
2017-03-05T11:26:14.418Z,32
2017-03-05T11:27:24.377Z,32
2017-03-05T11:28:34.335Z,32
2017-03-05T11:29:44.683Z,32
2017-03-05T11:30:55.007Z,32
2017-03-05T11:32:05.606Z,32
2017-03-05T11:33:15.564Z,32
2017-03-05T11:34:26.291Z,36
2017-03-05T11:35:37.058Z,36
2017-03-05T11:36:47.374Z,40
2017-03-05T11:37:58.412Z,36
2017-03-05T11:39:09.160Z,36
2017-03-05T11:40:19.889Z,32
2017-03-05T11:41:29.854Z,32
2017-03-05T11:42:40.209Z,28
2017-03-05T11:43:50.873Z,32
2017-03-05T11:45:00.845Z,28
2017-03-05T11:46:11.199Z,32
2017-03-05T11:47:21.565Z,32
2017-03-05T11:48:31.141Z,32
2017-03-05T11:49:42.169Z,28
2017-03-05T11:50:52.519Z,32
2017-03-05T11:52:03.272Z,28
2017-03-05T11:53:13.275Z,32
2017-03-05T11:54:24.041Z,32
2017-03-05T11:55:33.853Z,32
2017-03-05T11:56:43.825Z,28
2017-03-05T11:57:54.209Z,28
2017-03-05T11:59:04.575Z,28
2017-03-05T12:00:15.343Z,24
2017-03-05T12:01:26.005Z,28
2017-03-05T12:02:36.371Z,28
2017-03-05T12:03:47.137Z,32
2017-03-05T12:04:57.877Z,32
2017-03-05T12:06:08.278Z,32
2017-03-05T12:07:19.364Z,36
2017-03-05T12:08:30.129Z,32
2017-03-05T12:09:40.093Z,32
2017-03-05T12:10:50.443Z,32
2017-03-05T12:12:00.818Z,28
2017-03-05T12:13:11.465Z,24
2017-03-05T12:14:22.241Z,36
2017-03-05T12:15:33.011Z,28
2017-03-05T12:16:43.789Z,28
2017-03-05T12:17:54.551Z,32
2017-03-05T12:19:05.577Z,32
2017-03-05T12:20:15.950Z,36
2017-03-05T12:21:26.295Z,36
2017-03-05T12:22:36.681Z,36
2017-03-05T12:23:47.046Z,36
2017-03-05T12:24:58.209Z,36
2017-03-05T12:26:08.565Z,36
2017-03-05T12:27:18.915Z,44
2017-03-05T12:28:29.656Z,36
2017-03-05T12:29:40.007Z,40
2017-03-05T12:30:50.572Z,36
2017-03-05T12:32:01.345Z,36
2017-03-05T12:33:11.737Z,36
2017-03-05T12:34:22.102Z,36
2017-03-05T12:35:32.869Z,40
2017-03-05T12:36:43.139Z,40
2017-03-05T12:37:53.091Z,40
2017-03-05T12:39:03.451Z,36
2017-03-05T12:40:13.804Z,36
2017-03-05T12:41:24.578Z,40
2017-03-05T12:42:35.268Z,40
2017-03-05T12:43:45.267Z,48
2017-03-05T12:44:55.640Z,44
2017-03-05T12:46:05.609Z,44
2017-03-05T12:47:16.368Z,40
2017-03-05T12:48:26.576Z,44
2017-03-05T12:49:37.337Z,48
2017-03-05T12:50:48.109Z,48
2017-03-05T12:51:58.445Z,44
2017-03-05T12:53:09.205Z,44
2017-03-05T12:54:19.821Z,40
2017-03-05T12:55:30.176Z,44
2017-03-05T12:56:39.722Z,40
2017-03-05T12:57:50.090Z,40
2017-03-05T12:59:00.451Z,40
2017-03-05T13:00:10.671Z,40
2017-03-05T13:01:21.064Z,36
2017-03-05T13:02:31.840Z,40
2017-03-05T13:03:42.221Z,44
2017-03-05T13:04:52.577Z,40
2017-03-05T13:06:03.655Z,48
2017-03-05T13:07:14.034Z,52
2017-03-05T13:08:24.419Z,52
2017-03-05T13:09:35.201Z,48
2017-03-05T13:10:45.162Z,48
2017-03-05T13:11:55.450Z,44
2017-03-05T13:13:05.441Z,40
2017-03-05T13:14:16.206Z,44
2017-03-05T13:15:26.559Z,40
2017-03-05T13:16:36.934Z,40
2017-03-05T13:17:47.956Z,40
2017-03-05T13:18:58.700Z,40
2017-03-05T13:20:08.294Z,40
2017-03-05T13:21:19.065Z,44
2017-03-05T13:22:29.837Z,44
2017-03-05T13:23:40.510Z,40
2017-03-05T13:24:51.293Z,44
2017-03-05T13:26:02.078Z,40
2017-03-05T13:27:12.452Z,40
2017-03-05T13:28:22.032Z,40
2017-03-05T13:29:33.098Z,36
2017-03-05T13:30:43.501Z,36
2017-03-05T13:31:53.866Z,36
2017-03-05T13:33:04.231Z,36
2017-03-05T13:34:14.583Z,32
2017-03-05T13:35:25.671Z,32
2017-03-05T13:36:36.451Z,32
2017-03-05T13:37:46.813Z,28
2017-03-05T13:38:57.161Z,24
2017-03-05T13:40:07.944Z,24
2017-03-05T13:41:18.599Z,24
2017-03-05T13:42:29.373Z,24
2017-03-05T13:43:39.752Z,24
2017-03-05T13:44:50.513Z,28
2017-03-05T13:46:01.285Z,28
2017-03-05T13:47:12.349Z,28
2017-03-05T13:48:22.738Z,32
2017-03-05T13:49:33.556Z,28
2017-03-05T13:50:43.524Z,32
2017-03-05T13:51:53.919Z,32
2017-03-05T13:53:09.230Z,32
2017-03-05T13:54:20.008Z,32
2017-03-05T13:55:29.943Z,36
2017-03-05T13:56:40.289Z,32
2017-03-05T13:57:50.646Z,36
2017-03-05T13:59:00.441Z,36
2017-03-05T14:00:10.404Z,36
2017-03-05T14:01:19.957Z,36
2017-03-05T14:02:29.929Z,36
2017-03-05T14:03:40.290Z,40
2017-03-05T14:04:50.903Z,36
2017-03-05T14:06:00.444Z,40
2017-03-05T14:07:10.804Z,40
2017-03-05T14:08:21.184Z,36
2017-03-05T14:09:31.168Z,40
2017-03-05T14:10:41.769Z,40
2017-03-05T14:11:51.729Z,44
2017-03-05T14:13:02.475Z,40
2017-03-05T14:14:12.840Z,40
2017-03-05T14:15:23.602Z,40
2017-03-05T14:16:34.690Z,44
2017-03-05T14:17:45.502Z,44
2017-03-05T14:18:55.861Z,40
2017-03-05T14:20:06.209Z,40
2017-03-05T14:21:16.146Z,44
2017-03-05T14:22:26.023Z,44
2017-03-05T14:23:36.358Z,44
2017-03-05T14:24:47.098Z,40
2017-03-05T14:25:57.971Z,40
2017-03-05T14:27:08.726Z,40
2017-03-05T14:28:19.788Z,40
2017-03-05T14:29:30.168Z,40
2017-03-05T14:30:40.964Z,40
2017-03-05T14:31:50.536Z,40
2017-03-05T14:33:01.331Z,44
2017-03-05T14:34:12.316Z,40
2017-03-05T14:35:22.273Z,44
2017-03-05T14:36:33.039Z,40
2017-03-05T14:37:43.389Z,40
2017-03-05T14:38:53.339Z,40
2017-03-05T14:40:04.309Z,36
2017-03-05T14:41:14.271Z,32
2017-03-05T14:42:25.021Z,32
2017-03-05T14:43:35.803Z,28
2017-03-05T14:44:46.605Z,28
2017-03-05T14:45:57.236Z,24
2017-03-05T14:47:07.680Z,28
2017-03-05T14:48:18.433Z,28
2017-03-05T14:49:28.832Z,24
2017-03-05T14:50:39.217Z,24
2017-03-05T14:51:49.893Z,28
2017-03-05T14:53:00.244Z,24
2017-03-05T14:54:11.008Z,28
2017-03-05T14:55:21.376Z,24
2017-03-05T14:56:32.172Z,24
2017-03-05T14:57:42.847Z,28
2017-03-05T14:58:53.607Z,24
2017-03-05T15:00:04.402Z,24
2017-03-05T15:01:14.797Z,24
2017-03-05T15:02:25.582Z,24
2017-03-05T15:03:36.579Z,20
2017-03-05T15:04:46.933Z,20
2017-03-05T15:05:57.329Z,20
2017-03-05T15:07:08.103Z,20
2017-03-05T15:08:18.869Z,16
2017-03-05T15:09:29.893Z,16
2017-03-05T15:10:40.652Z,16
2017-03-05T15:11:51.416Z,12
2017-03-05T15:13:02.182Z,16
2017-03-05T15:14:12.967Z,12
2017-03-05T15:15:23.664Z,12
2017-03-05T15:16:33.247Z,12
2017-03-05T15:17:43.592Z,12
2017-03-05T15:18:53.572Z,12
2017-03-05T15:20:04.355Z,12
2017-03-05T15:21:15.420Z,12
2017-03-05T15:22:26.169Z,12
2017-03-05T15:23:36.507Z,12
2017-03-05T15:24:47.258Z,16
2017-03-05T15:25:57.603Z,16
2017-03-05T15:27:08.682Z,16
2017-03-05T15:28:19.444Z,12
2017-03-05T15:29:29.426Z,16
2017-03-05T15:30:39.778Z,16
2017-03-05T15:31:50.169Z,12
2017-03-05T15:33:01.246Z,16
2017-03-05T15:34:12.018Z,12
2017-03-05T15:35:22.374Z,12
2017-03-05T15:36:32.358Z,12
2017-03-05T15:37:42.337Z,12
2017-03-05T15:38:53.390Z,16
2017-03-05T15:40:03.744Z,16
2017-03-05T15:41:14.132Z,16
2017-03-05T15:42:24.894Z,16
2017-03-05T15:43:35.906Z,16
2017-03-05T15:44:46.896Z,16
2017-03-05T15:45:56.854Z,16
2017-03-05T15:47:07.233Z,12
2017-03-05T15:48:17.983Z,12
2017-03-05T15:49:28.348Z,12
2017-03-05T15:50:38.979Z,12
2017-03-05T15:51:49.363Z,12
2017-03-05T15:52:59.340Z,12
2017-03-05T15:54:09.730Z,8
2017-03-05T15:55:20.134Z,12
2017-03-05T15:56:30.777Z,12
2017-03-05T15:57:41.566Z,8
2017-03-05T15:58:51.972Z,12
2017-03-05T16:00:02.726Z,8
2017-03-05T16:01:13.086Z,8
2017-03-05T16:02:23.710Z,8
2017-03-05T16:03:33.917Z,8
2017-03-05T16:04:44.694Z,8
2017-03-05T16:05:54.677Z,4
2017-03-05T16:07:04.253Z,4
2017-03-05T16:08:15.442Z,8
2017-03-05T16:09:26.195Z,8
2017-03-05T16:10:36.565Z,8
2017-03-05T16:11:46.945Z,4
2017-03-05T16:12:57.289Z,4
2017-03-05T16:14:07.898Z,4
2017-03-05T16:15:18.282Z,4
2017-03-05T16:16:28.625Z,4
2017-03-05T16:17:39.006Z,4
2017-03-05T16:18:48.569Z,4
2017-03-05T16:19:59.219Z,4
2017-03-05T16:21:09.973Z,4
2017-03-05T16:22:19.948Z,4
2017-03-05T16:23:29.953Z,4
2017-03-05T16:24:40.703Z,4
2017-03-05T16:25:51.326Z,4
2017-03-05T16:27:01.694Z,0
2017-03-05T16:28:12.068Z,4
2017-03-05T16:29:22.466Z,4
2017-03-05T16:30:33.227Z,4
2017-03-05T16:31:43.898Z,0
2017-03-05T16:32:54.282Z,0
2017-03-05T16:34:05.064Z,0
2017-03-05T16:35:15.847Z,0
2017-03-05T16:36:26.623Z,4
2017-03-05T16:37:37.279Z,4
2017-03-05T16:38:48.043Z,4
2017-03-05T16:39:58.408Z,0
2017-03-05T16:41:08.794Z,0
2017-03-05T16:42:19.183Z,0
2017-03-05T16:43:29.838Z,0
2017-03-05T16:44:40.639Z,0
2017-03-05T16:45:51.588Z,0
2017-03-05T16:47:01.988Z,0
2017-03-05T16:48:11.746Z,0
2017-03-05T16:49:21.547Z,0
2017-03-05T16:50:31.503Z,0
2017-03-05T16:51:42.284Z,0
2017-03-05T16:52:52.238Z,0
2017-03-05T16:54:02.603Z,0
2017-03-05T16:55:13.268Z,0
2017-03-05T16:56:23.258Z,0
2017-03-05T16:57:33.635Z,0
2017-03-05T16:58:44.433Z,0
2017-03-05T16:59:54.836Z,0
2017-03-05T17:01:05.832Z,0
2017-03-05T17:02:16.562Z,0
2017-03-05T17:03:26.949Z,0